This is the latest recevied weather packets stored in our database for station/object LRTM. If no packets are shown the sender has not sent any weather packets the latest 10 day(s).
| Time | Temp. | Humidity | Pressure | Rain* | Wind** | Luminosity | Snow |
|---|---|---|---|---|---|---|---|
| 1777804415 | 15° C | 34% | 1022 hPa | - | - | - | - |
| 1777803507 | 13.89° C | 36% | 1022 hPa | - | - | - | - |
| 1777802606 | 13.89° C | 36% | 1022 hPa | - | - | - | - |
| 1777801706 | 13.89° C | 36% | 1023 hPa | - | - | - | - |
| 1777800807 | 13.89° C | 36% | 1023 hPa | - | - | - | - |
| 1777799907 | 13.89° C | 36% | 1023 hPa | - | - | - | - |
| 1777799027 | 13.89° C | 36% | 1023 hPa | - | - | - | - |
| 1777798107 | 12.78° C | 33% | 1023 hPa | - | - | - | - |
| 1777797206 | 12.78° C | 33% | 1023 hPa | - | - | - | - |
| 1777796307 | 12.22° C | 47% | 1023 hPa | - | - | - | - |
| 1777795417 | 12.22° C | 47% | 1023 hPa | - | - | - | - |
| 1777794506 | 12.22° C | 54% | 1023 hPa | - | - | - | - |
| 1777793606 | 12.22° C | 54% | 1023 hPa | - | - | - | - |
| 1777792705 | 10° C | 58% | 1023 hPa | - | - | - | - |
| 1777791807 | 10° C | 58% | 1023 hPa | - | - | - | - |
| 1777790907 | 8.89° C | 62% | 1023 hPa | - | - | - | - |
| 1777790043 | 8.89° C | 62% | 1023 hPa | - | - | - | - |
| 1777789107 | 7.22° C | 71% | 1023 hPa | - | - | - | - |
| 1777788206 | 7.22° C | 71% | 1023 hPa | - | - | - | - |
| 1777787306 | 5° C | 81% | 1023 hPa | - | - | - | - |
| 1777786406 | 5° C | 81% | 1023 hPa | - | - | - | - |
| 1777785506 | 2.78° C | 87% | 1023 hPa | - | - | - | - |
| 1777784606 | 2.78° C | 87% | 1023 hPa | - | - | - | - |
| 1777783706 | 2.22° C | 87% | 1023 hPa | - | - | - | - |
| 1777782808 | 2.22° C | 87% | 1023 hPa | - | - | - | - |
* Rain since midnight (hover to see other rain measurements)
** Current wind speed in m/s (hover to see current wind gust speed)